ENXP weather

Petrojarl Varg Platform
Norway

Public forecast

Using degrees Celsius for public forecast. Weather courtesy of forecast.io.

METAR (pilot weather report)

Closest report is Sleipner A Platform, 17.3 nm (32.1 km) N. Retrieved 2019/05/21 14:20 UTC (0 seconds ago):

ENSL 211420Z 32022KT 9999 BKN010 11/08 Q1014 W08/S3

TAF (pilot weather forecast)

Closest forecast is Stavanger Airport Sola, 126.4 nm (234.2 km) ENE. Retrieved 2019/05/21 12:59 UTC (1 hour ago):

TAF ENZV 211100Z 2112/2212 32010KT 9999 FEW025 BKN090 PROB30 TEMPO 2115/2118 SHRA FEW010 SCT020CB TEMPO 2120/2124 2000 BR BKN004 TEMPO 2200/2212 2000 SHRA BKN006 SCT020CB